Time;durP1;ratioP1;P1;durP2;ratioP2;P2;SDS_P1;SDS_P2;PMS_P1;PMS_P2;Temp;Humidity;BMP_temperature;BMP_pressure;BME280_temperature;BME280_humidity;BME280_pressure;Samples;Min_cycle;Max_cycle;Signal;HPM_P1;HPM_P2
2024/01/22 00:01:27;;;;;;;9.38;6.10;;;;;;;-0.73;100.00;102621.59;5054457;28;20040;-70
2024/01/22 00:03:53;;;;;;;9.48;6.22;;;;;;;-0.25;100.00;102644.50;5054702;28;20517;-71
2024/01/22 00:06:18;;;;;;;9.02;5.40;;;;;;;-0.93;100.00;102640.34;5054726;28;20033;-69
2024/01/22 00:08:43;;;;;;;7.90;5.45;;;;;;;-2.34;100.00;102439.44;5051035;28;20043;-75
2024/01/22 00:11:10;;;;;;;9.00;5.53;;;;;;;-1.48;100.00;102497.19;5054287;28;20029;-69
2024/01/22 00:13:36;;;;;;;8.60;5.45;;;;;;;-0.82;100.00;102611.06;5058061;28;20411;-71
2024/01/22 00:16:02;;;;;;;8.85;5.40;;;;;;;-1.57;100.00;102496.63;5058604;28;20040;-70
2024/01/22 00:18:27;;;;;;;9.07;6.22;;;;;;;-0.97;100.00;102665.91;5056675;28;20036;-70
2024/01/22 00:20:53;;;;;;;9.68;5.93;;;;;;;-0.56;100.00;102615.13;5053458;28;20473;-70
2024/01/22 00:23:18;;;;;;;9.18;6.00;;;;;;;-1.08;100.00;102695.97;5057200;28;20033;-70
2024/01/22 00:25:44;;;;;;;11.60;6.18;;;;;;;-0.73;100.00;102659.03;5059414;28;20055;-70
2024/01/22 00:28:09;;;;;;;9.98;6.45;;;;;;;-1.51;100.00;102521.94;5058383;28;20441;-72
2024/01/22 00:30:35;;;;;;;10.43;6.55;;;;;;;-1.60;100.00;102548.78;5056750;28;20032;-70
2024/01/22 00:33:00;;;;;;;10.98;6.15;;;;;;;-1.96;100.00;102408.66;5056247;28;20455;-70
2024/01/22 00:35:27;;;;;;;10.88;6.40;;;;;;;-1.80;100.00;102517.63;5060156;28;20020;-70
2024/01/22 00:37:52;;;;;;;10.55;6.30;;;;;;;-0.61;100.00;102549.91;5062143;28;20032;-74
2024/01/22 00:40:18;;;;;;;8.73;5.82;;;;;;;-1.45;100.00;102463.34;5052992;28;20040;-70
2024/01/22 00:42:43;;;;;;;9.98;5.80;;;;;;;-0.76;100.00;102648.88;5052212;28;20108;-70
2024/01/22 00:45:09;;;;;;;8.63;5.75;;;;;;;-1.01;100.00;102639.03;5054432;28;20048;-70
2024/01/22 00:47:36;;;;;;;10.70;6.38;;;;;;;-1.26;100.00;102652.38;5055749;28;20037;-69
2024/01/22 00:50:01;;;;;;;9.38;5.95;;;;;;;-1.00;100.00;102647.38;5053021;28;20062;-70
2024/01/22 00:52:27;;;;;;;9.77;6.28;;;;;;;-1.14;100.00;102696.44;5050285;28;20108;-69
2024/01/22 00:54:53;;;;;;;8.90;5.90;;;;;;;-0.64;100.00;102687.09;5054408;28;20396;-70
2024/01/22 00:57:19;;;;;;;8.95;6.07;;;;;;;-0.72;100.00;102708.22;5051083;28;20048;-69
2024/01/22 00:59:44;;;;;;;9.57;6.63;;;;;;;-0.63;100.00;102605.53;5052779;28;20029;-72
2024/01/22 01:02:10;;;;;;;11.05;6.53;;;;;;;-1.09;100.00;102487.13;5052976;28;20526;-69
2024/01/22 01:04:35;;;;;;;11.80;6.90;;;;;;;-1.73;100.00;102496.47;5050785;28;20067;-71
2024/01/22 01:07:01;;;;;;;10.75;6.80;;;;;;;-2.36;100.00;102541.47;5051637;28;20662;-70
2024/01/22 01:09:27;;;;;;;10.73;6.63;;;;;;;-0.58;100.00;102607.53;5053768;28;20028;-71
2024/01/22 01:11:52;;;;;;;9.77;6.00;;;;;;;-0.83;100.00;102464.53;5053312;28;20040;-70
2024/01/22 01:14:18;;;;;;;10.55;6.25;;;;;;;-0.27;100.00;102563.56;5048004;28;20025;-71
2024/01/22 01:16:43;;;;;;;8.90;6.22;;;;;;;-0.87;100.00;102480.97;5050998;28;20028;-74
2024/01/22 01:19:09;;;;;;;9.88;6.05;;;;;;;-0.69;100.00;102463.69;5052648;28;20489;-70
2024/01/22 01:21:38;;;;;;;8.93;6.03;;;;;;;-0.98;100.00;102693.28;5054491;28;20415;-69
2024/01/22 01:24:03;;;;;;;12.35;7.03;;;;;;;-1.01;100.00;102563.31;5050565;28;20040;-69
2024/01/22 01:26:29;;;;;;;13.45;8.23;;;;;;;-1.89;100.00;102522.94;5048655;28;20037;-71
2024/01/22 01:28:54;;;;;;;19.35;9.88;;;;;;;-1.09;100.00;102615.22;5048930;28;20392;-70
2024/01/22 01:31:20;;;;;;;21.95;11.07;;;;;;;-1.48;100.00;102482.22;5051747;28;20073;-70
2024/01/22 01:33:45;;;;;;;23.13;10.52;;;;;;;-0.68;100.00;102592.78;5051882;28;20037;-71
2024/01/22 01:36:11;;;;;;;19.17;10.05;;;;;;;-0.69;100.00;102580.22;5053777;28;20040;-71
2024/01/22 01:38:36;;;;;;;16.85;9.38;;;;;;;-1.08;100.00;102529.63;5055919;28;20124;-68
2024/01/22 01:41:04;;;;;;;13.73;7.47;;;;;;;-0.41;100.00;102564.41;5049634;28;20096;-69
2024/01/22 01:43:30;;;;;;;11.77;7.03;;;;;;;-0.99;100.00;102392.91;5051215;28;20044;-69
2024/01/22 01:45:55;;;;;;;11.95;6.38;;;;;;;-0.71;100.00;102390.34;5052078;28;20439;-69
2024/01/22 01:48:21;;;;;;;10.07;6.05;;;;;;;-0.94;100.00;102463.94;5047807;28;20036;-69
2024/01/22 01:50:47;;;;;;;17.45;8.60;;;;;;;-0.33;100.00;102654.78;5053164;28;20469;-70
2024/01/22 01:53:14;;;;;;;11.68;7.28;;;;;;;-1.06;100.00;102539.69;5055741;28;20056;-72
2024/01/22 01:55:40;;;;;;;12.88;6.78;;;;;;;-1.45;100.00;102464.97;5055441;28;20036;-69
2024/01/22 01:58:06;;;;;;;12.20;7.15;;;;;;;-1.38;100.00;102575.16;5050408;28;20028;-70
2024/01/22 02:00:32;;;;;;;10.65;6.32;;;;;;;-2.13;100.00;102391.84;5050020;28;20032;-69
2024/01/22 02:02:58;;;;;;;8.45;5.55;;;;;;;-0.97;100.00;102471.22;5049830;28;20037;-70
2024/01/22 02:05:23;;;;;;;7.55;5.13;;;;;;;-0.34;100.00;102509.03;5048711;28;20442;-71
2024/01/22 02:07:49;;;;;;;8.55;5.15;;;;;;;-0.71;100.00;102555.13;5050643;28;20025;-70
2024/01/22 02:10:14;;;;;;;9.23;5.22;;;;;;;-0.40;100.00;102461.22;5068283;28;21009;-71
2024/01/22 02:12:40;;;;;;;7.95;5.60;;;;;;;-0.68;100.00;102572.81;5057521;28;20033;-72
2024/01/22 02:15:06;;;;;;;8.10;5.32;;;;;;;-1.32;100.00;102418.41;5054484;28;20487;-69
2024/01/22 02:17:32;;;;;;;8.93;5.85;;;;;;;-0.61;100.00;102531.56;5051676;28;20025;-71
2024/01/22 02:19:57;;;;;;;7.85;5.28;;;;;;;-1.21;100.00;102434.84;5055640;28;20086;-74
2024/01/22 02:22:23;;;;;;;10.10;5.93;;;;;;;-0.16;100.00;102555.03;5054986;28;20525;-70
2024/01/22 02:24:48;;;;;;;8.75;5.85;;;;;;;-0.23;100.00;102557.97;5053678;28;20391;-70
2024/01/22 02:27:15;;;;;;;8.80;6.00;;;;;;;-0.33;100.00;102518.25;5052733;28;20040;-71
2024/01/22 02:29:40;;;;;;;9.07;5.85;;;;;;;-1.24;100.00;102424.69;5051264;28;20434;-71
2024/01/22 02:32:06;;;;;;;9.73;6.15;;;;;;;-1.42;100.00;102433.59;5052150;28;20033;-70
2024/01/22 02:34:31;;;;;;;9.45;5.82;;;;;;;-0.13;100.00;102567.72;5051671;28;20036;-71
2024/01/22 02:36:57;;;;;;;10.23;6.00;;;;;;;-0.94;100.00;102540.44;5050321;28;20044;-71
2024/01/22 02:39:22;;;;;;;9.10;5.80;;;;;;;-0.44;100.00;102546.75;5051383;28;20079;-70
2024/01/22 02:41:48;;;;;;;8.63;5.78;;;;;;;-0.33;100.00;102405.81;5053674;28;20063;-70
2024/01/22 02:44:13;;;;;;;9.00;6.07;;;;;;;-1.20;100.00;102405.78;5056694;28;20075;-71
2024/01/22 02:46:39;;;;;;;9.43;6.07;;;;;;;-1.61;100.00;102358.47;5048346;28;20033;-70
2024/01/22 02:49:05;;;;;;;9.00;5.82;;;;;;;-0.47;100.00;102496.59;5050439;28;20116;-71
2024/01/22 02:51:31;;;;;;;9.18;6.10;;;;;;;-0.37;100.00;102486.38;5051274;28;20078;-71
2024/01/22 02:53:56;;;;;;;8.75;6.15;;;;;;;-0.69;100.00;102493.66;5052851;28;20472;-72
2024/01/22 02:56:24;;;;;;;10.73;7.15;;;;;;;-0.38;100.00;102534.63;5050251;28;20032;-70
2024/01/22 02:58:49;;;;;;;13.60;8.77;;;;;;;-0.68;100.00;102424.59;5053012;28;20476;-70
2024/01/22 03:01:15;;;;;;;13.23;8.82;;;;;;;-1.22;100.00;102369.91;5051018;28;20032;-70
2024/01/22 03:03:40;;;;;;;13.95;8.48;;;;;;;-1.09;100.00;102577.81;5052424;28;20062;-70
2024/01/22 03:06:06;;;;;;;13.38;8.38;;;;;;;-1.22;100.00;102462.19;5052529;28;20064;-73
2024/01/22 03:08:32;;;;;;;12.05;8.10;;;;;;;-1.50;100.00;102469.66;5048415;28;20032;-70
2024/01/22 03:10:58;;;;;;;10.88;7.47;;;;;;;-1.44;100.00;102426.78;5055161;28;20100;-69
2024/01/22 03:13:23;;;;;;;12.57;7.40;;;;;;;-0.69;100.00;102506.13;5055562;28;20049;-69
2024/01/22 03:15:49;;;;;;;11.05;7.40;;;;;;;-1.43;100.00;102396.09;5052645;28;20491;-70
2024/01/22 03:18:14;;;;;;;14.93;9.10;;;;;;;-1.45;100.00;102462.47;5057089;28;20115;-71
2024/01/22 03:20:39;;;;;;;24.83;14.57;;;;;;;-0.81;100.00;102537.03;5055319;28;20483;-71
2024/01/22 03:23:05;;;;;;;23.83;14.05;;;;;;;-0.86;100.00;102514.28;5056624;28;20556;-73
2024/01/22 03:25:31;;;;;;;16.98;10.35;;;;;;;-0.86;100.00;102594.19;5056014;28;20033;-71
2024/01/22 03:27:56;;;;;;;14.85;9.40;;;;;;;-0.77;100.00;102584.72;5053543;28;20108;-70
2024/01/22 03:30:22;;;;;;;13.25;8.55;;;;;;;-0.94;100.00;102436.47;5054605;28;20037;-71
2024/01/22 03:32:47;;;;;;;13.38;8.70;;;;;;;-0.70;100.00;102476.97;5054554;28;20028;-71
2024/01/22 03:35:13;;;;;;;14.75;8.85;;;;;;;-0.94;100.00;102541.31;5054745;28;20040;-71
2024/01/22 03:37:40;;;;;;;12.32;8.65;;;;;;;-1.14;100.00;102560.84;5056149;28;20466;-70
2024/01/22 03:40:07;;;;;;;14.07;8.90;;;;;;;-0.89;100.00;102544.91;5053251;28;20561;-69
2024/01/22 03:42:33;;;;;;;11.40;8.18;;;;;;;-0.69;100.00;102585.22;5056264;28;20081;-70
2024/01/22 03:44:59;;;;;;;15.07;9.77;;;;;;;-1.19;100.00;102463.25;5052208;28;20418;-71
2024/01/22 03:47:24;;;;;;;19.67;11.88;;;;;;;-0.64;100.00;102574.72;5055786;28;20024;-70
2024/01/22 03:49:50;;;;;;;12.40;8.25;;;;;;;-1.87;100.00;102475.66;5056941;28;20029;-71
2024/01/22 03:52:15;;;;;;;12.70;7.40;;;;;;;-1.70;100.00;102499.16;5056917;28;20091;-72
2024/01/22 03:54:41;;;;;;;11.50;7.70;;;;;;;-0.41;100.00;102566.91;5055353;28;20091;-71
2024/01/22 03:57:07;;;;;;;12.68;8.35;;;;;;;-0.79;100.00;102602.91;5054227;28;20025;-75
2024/01/22 03:59:37;;;;;;;11.85;8.45;;;;;;;-1.33;100.00;102425.78;5053787;28;20033;-71
2024/01/22 04:02:03;;;;;;;16.30;8.93;;;;;;;-2.50;100.00;102390.31;5055613;28;20036;-71
2024/01/22 04:04:28;;;;;;;13.10;9.02;;;;;;;-2.29;100.00;102375.84;5056919;28;20040;-70
2024/01/22 04:06:54;;;;;;;11.57;8.10;;;;;;;-1.73;100.00;102454.94;5038675;28;20060;-71
2024/01/22 04:09:19;;;;;;;13.10;7.90;;;;;;;-1.53;100.00;102486.09;5052846;28;20029;-70
2024/01/22 04:11:45;;;;;;;14.38;8.00;;;;;;;-1.58;100.00;102507.38;5050400;28;20037;-70
2024/01/22 04:14:10;;;;;;;13.85;8.15;;;;;;;-1.70;100.00;102440.16;5053636;28;20509;-71
2024/01/22 04:16:36;;;;;;;17.15;10.48;;;;;;;-1.37;100.00;102596.00;5057192;28;20033;-72
2024/01/22 04:19:01;;;;;;;17.23;10.73;;;;;;;-1.92;100.00;102454.56;5055318;28;20074;-71
2024/01/22 04:21:30;;;;;;;15.60;9.73;;;;;;;-1.02;100.00;102587.41;5054226;28;20499;-71
2024/01/22 04:23:56;;;;;;;11.88;7.88;;;;;;;-1.43;100.00;102471.78;5050435;28;20037;-70
2024/01/22 04:26:21;;;;;;;10.75;7.18;;;;;;;-1.65;100.00;102481.22;5055051;28;20111;-71
2024/01/22 04:28:47;;;;;;;13.98;8.63;;;;;;;-1.87;100.00;102466.56;5056819;28;20032;-74
2024/01/22 04:31:12;;;;;;;12.65;8.02;;;;;;;-0.77;100.00;102538.94;5075386;28;20033;-73
2024/01/22 04:33:38;;;;;;;18.08;12.05;;;;;;;-1.60;100.00;102561.25;5066455;28;20541;-72
2024/01/22 04:36:04;;;;;;;20.75;12.68;;;;;;;-1.91;100.00;102521.97;5055696;28;20040;-70
2024/01/22 04:38:30;;;;;;;24.92;16.83;;;;;;;-1.50;100.00;102608.44;5053797;28;20036;-70
2024/01/22 04:40:56;;;;;;;24.58;16.27;;;;;;;-1.58;100.00;102670.31;5061198;28;20084;-70
2024/01/22 04:43:22;;;;;;;27.38;16.75;;;;;;;-1.58;100.00;102589.66;5071893;28;20139;-71
2024/01/22 04:45:48;;;;;;;24.25;13.82;;;;;;;-1.74;100.00;102625.22;5056152;28;20461;-73
2024/01/22 04:48:13;;;;;;;21.92;12.60;;;;;;;-1.70;100.00;102663.69;5055629;28;20039;-71
2024/01/22 04:50:39;;;;;;;20.17;12.23;;;;;;;-2.20;100.00;102618.88;5056083;28;20036;-71
2024/01/22 04:53:04;;;;;;;19.70;13.80;;;;;;;-2.40;100.00;102521.22;5056627;28;20068;-71
2024/01/22 04:55:49;;;;;;;23.88;13.30;;;;;;;-1.94;100.00;102661.31;5057009;28;20028;-72
2024/01/22 04:58:15;;;;;;;24.65;14.93;;;;;;;-2.33;100.00;102528.31;5056803;28;20037;-70
2024/01/22 05:00:40;;;;;;;20.83;13.40;;;;;;;-2.01;100.00;102524.66;5058576;28;20081;-70
2024/01/22 05:03:07;;;;;;;24.13;15.40;;;;;;;-1.56;100.00;102610.56;5056469;28;20033;-74
2024/01/22 05:05:33;;;;;;;17.92;12.35;;;;;;;-1.33;100.00;102587.94;5054575;28;20033;-71
2024/01/22 05:07:59;;;;;;;26.63;16.60;;;;;;;-1.67;100.00;102676.34;5057015;28;20037;-69
2024/01/22 05:10:24;;;;;;;30.05;18.25;;;;;;;-2.70;100.00;102393.16;5053401;28;20032;-72
2024/01/22 05:13:05;;;;;;;33.72;22.30;;;;;;;-1.79;100.00;102497.81;5051931;28;20028;-70
2024/01/22 05:15:31;;;;;;;36.73;20.60;;;;;;;-1.57;100.00;102529.91;5051410;28;20029;-70
2024/01/22 05:17:56;;;;;;;27.67;15.60;;;;;;;-2.39;100.00;102541.25;5056117;28;20565;-72
2024/01/22 05:20:21;;;;;;;25.50;16.17;;;;;;;-1.95;100.00;102593.94;5053645;28;20442;-70
2024/01/22 05:22:48;;;;;;;27.08;17.48;;;;;;;-1.98;100.00;102631.97;5052958;28;20056;-69
2024/01/22 05:25:13;;;;;;;205.90;106.38;;;;;;;-2.55;100.00;102618.16;5055456;28;20028;-72
2024/01/22 05:27:43;;;;;;;90.90;54.65;;;;;;;-2.46;100.00;102578.97;5057220;28;20498;-71
2024/01/22 05:30:09;;;;;;;67.63;40.80;;;;;;;-1.98;100.00;102592.09;5056378;28;20025;-70
2024/01/22 05:32:36;;;;;;;54.88;33.88;;;;;;;-1.88;100.00;102675.78;5053775;28;20039;-72
2024/01/22 05:35:01;;;;;;;53.67;30.48;;;;;;;-1.87;100.00;102612.75;5050118;28;20033;-71
2024/01/22 05:37:27;;;;;;;47.45;30.95;;;;;;;-2.17;100.00;102760.22;5049377;28;20082;-71
2024/01/22 05:39:53;;;;;;;49.15;30.90;;;;;;;-3.30;100.00;102407.44;5053244;28;20037;-70
2024/01/22 05:42:18;;;;;;;37.35;25.73;;;;;;;-2.51;100.00;102530.47;5053282;28;20108;-74
2024/01/22 05:44:43;;;;;;;37.15;21.48;;;;;;;-1.86;100.00;102642.72;5054443;28;20036;-71
2024/01/22 05:47:09;;;;;;;35.20;22.00;;;;;;;-2.88;100.00;102481.53;5053550;28;20449;-74
2024/01/22 05:49:34;;;;;;;65.65;35.15;;;;;;;-1.80;100.00;102658.09;5052281;28;20116;-70
2024/01/22 05:52:00;;;;;;;56.22;31.08;;;;;;;-1.68;100.00;102620.63;5055609;28;20032;-70
2024/01/22 05:54:25;;;;;;;48.20;29.92;;;;;;;-2.31;100.00;102639.72;5053862;28;20057;-70
2024/01/22 05:56:51;;;;;;;47.05;28.85;;;;;;;-2.82;100.00;102409.78;5052940;28;20040;-71
2024/01/22 05:59:16;;;;;;;45.40;28.02;;;;;;;-1.80;100.00;102584.94;5055730;28;20036;-70
2024/01/22 06:01:42;;;;;;;38.80;21.98;;;;;;;-1.46;100.00;102625.31;5051609;28;20100;-71
2024/01/22 06:04:07;;;;;;;29.02;18.50;;;;;;;-1.89;100.00;102544.50;5054702;28;20029;-69
2024/01/22 06:06:33;;;;;;;30.05;18.00;;;;;;;-1.23;100.00;102608.53;5052496;28;20028;-70
2024/01/22 06:08:58;;;;;;;27.00;16.15;;;;;;;-2.51;100.00;102430.03;5053870;28;20041;-69
2024/01/22 06:11:24;;;;;;;25.25;16.65;;;;;;;-0.49;100.00;102577.22;5054064;28;20075;-70
2024/01/22 06:13:52;;;;;;;53.25;34.95;;;;;;;1.21;100.00;102383.84;5050463;28;20033;-70
2024/01/22 06:16:18;;;;;;;84.15;63.05;;;;;;;1.89;100.00;102383.75;5055524;28;20119;-70
2024/01/22 06:18:45;;;;;;;127.78;94.25;;;;;;;2.19;100.00;102327.44;5053770;28;20159;-70
2024/01/22 06:21:15;;;;;;;65.60;49.25;;;;;;;2.86;100.00;102333.66;5053807;28;20033;-70
2024/01/22 06:23:43;;;;;;;65.45;46.67;;;;;;;3.06;100.00;102110.06;5051579;28;20036;-69
2024/01/22 06:26:09;;;;;;;59.70;44.03;;;;;;;2.92;100.00;102153.06;5053091;28;20060;-70
2024/01/22 06:28:35;;;;;;;59.28;41.25;;;;;;;3.20;100.00;102171.75;5056341;28;20116;-71
2024/01/22 06:31:01;;;;;;;96.43;63.17;;;;;;;2.72;100.00;102204.16;5053137;28;20467;-71
2024/01/22 06:33:26;;;;;;;204.30;117.70;;;;;;;4.50;100.00;102313.94;5054994;28;20035;-70
2024/01/22 06:35:52;;;;;;;231.20;136.85;;;;;;;5.39;100.00;101991.56;5053607;28;20104;-71
2024/01/22 06:38:17;;;;;;;161.93;100.90;;;;;;;4.79;100.00;102134.38;5051097;28;20032;-70
2024/01/22 06:40:44;;;;;;;90.82;57.83;;;;;;;4.81;100.00;102110.94;5054929;28;20473;-70
2024/01/22 06:43:10;;;;;;;96.38;60.90;;;;;;;5.53;100.00;102204.63;5049251;28;20140;-70
2024/01/22 06:45:36;;;;;;;93.55;59.22;;;;;;;6.06;100.00;102196.91;5053923;28;20111;-71
2024/01/22 06:48:02;;;;;;;40.83;28.63;;;;;;;4.59;100.00;102331.88;5054894;28;20075;-70
2024/01/22 06:50:28;;;;;;;23.42;16.42;;;;;;;4.16;100.00;102296.81;5052097;28;20061;-70
2024/01/22 06:52:53;;;;;;;18.58;11.95;;;;;;;7.20;100.00;102162.53;5054753;28;20033;-72
2024/01/22 06:55:21;;;;;;;15.68;10.35;;;;;;;7.55;100.00;102022.34;5053244;28;20127;-71
2024/01/22 06:57:47;;;;;;;14.15;9.05;;;;;;;5.97;100.00;102346.44;5052897;28;20133;-72
2024/01/22 07:00:22;;;;;;;11.68;8.43;;;;;;;6.69;100.00;102302.13;5056064;28;20977;-70
2024/01/22 07:02:49;;;;;;;10.02;7.82;;;;;;;6.58;100.00;102302.63;5050252;28;20119;-71
2024/01/22 07:05:15;;;;;;;12.88;7.53;;;;;;;5.92;100.00;102471.66;5054965;28;20068;-71
2024/01/22 07:07:41;;;;;;;11.05;6.95;;;;;;;5.74;100.00;102531.63;5056185;28;20699;-69
2024/01/22 07:10:11;;;;;;;8.75;6.50;;;;;;;7.61;100.00;102397.94;5055542;28;20067;-71
2024/01/22 07:12:40;;;;;;;9.57;7.38;;;;;;;6.18;100.00;102333.56;5059912;28;20096;-74
2024/01/22 07:15:08;;;;;;;10.35;7.40;;;;;;;4.26;100.00;102501.09;5065309;28;20037;-72
2024/01/22 07:17:34;;;;;;;9.57;6.65;;;;;;;3.34;100.00;102745.34;5055065;28;20041;-71
2024/01/22 07:19:59;;;;;;;11.38;7.50;;;;;;;3.01;100.00;102681.81;5062494;28;20450;-71
2024/01/22 07:22:24;;;;;;;16.40;10.52;;;;;;;3.90;100.00;102627.97;5059389;28;20112;-72
2024/01/22 07:24:50;;;;;;;12.20;8.18;;;;;;;3.45;100.00;102616.81;5058111;28;20029;-73
2024/01/22 07:27:19;;;;;;;13.27;8.82;;;;;;;2.55;100.00;102879.69;5060404;28;20078;-72
2024/01/22 07:29:44;;;;;;;13.20;9.20;;;;;;;3.29;100.00;102692.34;5064453;28;20768;-71
2024/01/22 07:32:10;;;;;;;14.00;8.70;;;;;;;3.36;100.00;102633.16;5056334;28;20066;-71
2024/01/22 07:34:36;;;;;;;37.40;19.17;;;;;;;3.64;100.00;102739.22;5053263;28;20068;-71
2024/01/22 07:37:01;;;;;;;26.70;14.23;;;;;;;2.83;100.00;102612.31;5060853;28;20021;-71
2024/01/22 07:39:26;;;;;;;39.35;21.15;;;;;;;3.31;100.00;102644.66;5060172;28;20089;-70
2024/01/22 07:41:52;;;;;;;12.60;8.15;;;;;;;3.02;100.00;102811.69;5056358;28;20029;-70
2024/01/22 07:44:26;;;;;;;18.92;10.95;;;;;;;3.86;100.00;102726.78;5057969;28;20037;-72
2024/01/22 07:46:51;;;;;;;26.75;14.57;;;;;;;2.78;100.00;102646.38;5059425;28;20414;-70
2024/01/22 07:49:17;;;;;;;16.55;11.45;;;;;;;3.70;100.00;102865.25;5051054;28;20033;-71
2024/01/22 07:51:45;;;;;;;13.43;9.38;;;;;;;3.15;100.00;102623.00;5057766;28;20338;-77
2024/01/22 07:54:10;;;;;;;21.30;12.10;;;;;;;3.47;100.00;102776.16;5057900;28;20048;-70
2024/01/22 07:56:36;;;;;;;20.27;12.68;;;;;;;3.17;100.00;102733.69;5062248;28;20036;-72
2024/01/22 07:59:17;;;;;;;15.82;11.25;;;;;;;3.57;100.00;102857.03;5059851;28;20036;-71
2024/01/22 08:01:43;;;;;;;12.65;8.90;;;;;;;3.04;100.00;102776.59;5065854;28;20410;-69
2024/01/22 08:04:08;;;;;;;13.30;8.95;;;;;;;2.52;100.00;102755.63;5056365;28;20040;-69
2024/01/22 08:06:33;;;;;;;28.25;14.90;;;;;;;2.28;100.00;102697.56;5064986;28;20869;-68
2024/01/22 08:08:59;;;;;;;12.73;8.77;;;;;;;3.17;100.00;102723.63;5060716;28;20088;-69
2024/01/22 08:11:25;;;;;;;16.88;9.93;;;;;;;3.36;100.00;102645.72;5053638;28;20033;-70
2024/01/22 08:13:50;;;;;;;14.68;8.90;;;;;;;3.85;100.00;102832.38;5063806;28;20043;-70
2024/01/22 08:16:16;;;;;;;14.10;9.60;;;;;;;1.66;100.00;102639.22;5064555;28;20029;-70
2024/01/22 08:18:41;;;;;;;14.98;7.63;;;;;;;2.76;100.00;102724.19;5063974;28;20029;-70
2024/01/22 08:21:06;;;;;;;15.32;7.95;;;;;;;2.79;100.00;102794.66;5064370;28;20032;-70
2024/01/22 08:23:32;;;;;;;12.70;8.15;;;;;;;3.34;100.00;102736.19;5056082;28;20037;-70
2024/01/22 08:25:58;;;;;;;9.45;6.65;;;;;;;3.09;100.00;102838.84;5061628;28;20479;-71
2024/01/22 08:28:24;;;;;;;9.50;6.93;;;;;;;2.25;100.00;102731.69;5065737;28;20086;-71
2024/01/22 08:30:49;;;;;;;10.95;7.38;;;;;;;2.61;100.00;102839.78;5067450;28;20470;-72
2024/01/22 08:33:15;;;;;;;11.60;8.10;;;;;;;3.35;100.00;102774.72;5066912;28;20086;-69
2024/01/22 08:35:40;;;;;;;22.85;13.50;;;;;;;3.20;100.00;102842.75;5058363;28;20491;-72
2024/01/22 08:38:06;;;;;;;15.60;10.10;;;;;;;3.58;100.00;102821.94;5058072;28;20499;-70
2024/01/22 08:40:31;;;;;;;16.55;9.95;;;;;;;3.58;100.00;102854.63;5064093;28;20406;-69
2024/01/22 08:42:57;;;;;;;11.55;9.00;;;;;;;3.71;100.00;102758.78;5064638;28;20025;-72
2024/01/22 08:45:23;;;;;;;13.68;9.30;;;;;;;3.87;100.00;102786.34;5066067;28;20030;-69
2024/01/22 08:47:49;;;;;;;12.38;9.10;;;;;;;3.68;100.00;102818.16;5052799;28;20111;-69
2024/01/22 08:50:21;;;;;;;14.15;9.65;;;;;;;3.18;100.00;102746.31;5065635;28;20029;-70
2024/01/22 08:52:47;;;;;;;15.93;11.00;;;;;;;3.74;100.00;102760.59;5056688;28;20059;-69
2024/01/22 08:55:15;;;;;;;12.82;8.90;;;;;;;3.63;100.00;102796.97;5064252;28;20040;-69
2024/01/22 08:57:40;;;;;;;12.57;9.23;;;;;;;3.62;100.00;102816.25;5054095;28;20398;-72
2024/01/22 09:00:10;;;;;;;13.93;9.73;;;;;;;3.76;100.00;102767.44;5055034;28;20032;-67
2024/01/22 09:02:40;;;;;;;11.02;8.40;;;;;;;3.68;100.00;102846.72;5057551;28;20032;-68
2024/01/22 09:05:10;;;;;;;13.38;7.63;;;;;;;3.45;100.00;102776.88;5055384;28;20487;-70
2024/01/22 09:07:36;;;;;;;14.73;9.80;;;;;;;3.38;100.00;102714.53;5054247;28;20021;-70
2024/01/22 09:10:06;;;;;;;13.95;9.57;;;;;;;2.91;100.00;102644.50;5053795;28;20112;-71
2024/01/22 09:12:33;;;;;;;7.53;5.60;;;;;;;3.56;100.00;102795.84;5056148;28;20102;-70
2024/01/22 09:14:59;;;;;;;8.70;5.70;;;;;;;3.21;100.00;102759.00;5051802;28;20029;-70
2024/01/22 09:17:25;;;;;;;7.10;5.63;;;;;;;3.68;100.00;102786.34;5054484;28;20035;-70
2024/01/22 09:19:51;;;;;;;8.35;5.70;;;;;;;3.48;100.00;102777.03;5053201;28;20112;-71
2024/01/22 09:22:17;;;;;;;8.98;5.88;;;;;;;2.89;100.00;102647.75;5054232;28;20050;-69
2024/01/22 09:24:42;;;;;;;8.25;6.65;;;;;;;2.75;100.00;102659.69;5054738;28;20036;-72
2024/01/22 09:27:07;;;;;;;7.85;6.25;;;;;;;1.81;100.00;102545.50;5054754;28;20033;-69
2024/01/22 09:29:33;;;;;;;16.50;11.73;;;;;;;2.69;100.00;102671.09;5057598;28;20121;-69
2024/01/22 09:31:58;;;;;;;17.52;10.52;;;;;;;2.60;100.00;102651.41;5054116;28;20047;-72
2024/01/22 09:34:24;;;;;;;16.58;12.23;;;;;;;3.08;100.00;102721.53;4699776;28;10000605;-70
2024/01/22 09:36:51;;;;;;;12.02;7.57;;;;;;;3.22;100.00;102640.09;5053706;28;20483;-69
2024/01/22 09:39:16;;;;;;;11.35;7.85;;;;;;;3.36;100.00;102608.03;5053952;28;20033;-74
2024/01/22 09:41:42;;;;;;;11.75;8.77;;;;;;;3.32;100.00;102558.41;5053440;28;20447;-72
2024/01/22 09:44:08;;;;;;;12.27;7.32;;;;;;;4.33;100.00;102601.25;5054702;28;20028;-72
2024/01/22 09:46:35;;;;;;;12.63;8.07;;;;;;;4.02;100.00;102632.66;5060576;28;20059;-71
2024/01/22 09:49:00;;;;;;;14.07;10.07;;;;;;;3.06;100.00;102637.69;5053219;28;20040;-75
2024/01/22 09:51:28;;;;;;;11.93;7.95;;;;;;;3.88;100.00;102715.09;5050069;28;20032;-71
2024/01/22 09:54:02;;;;;;;12.55;7.40;;;;;;;3.78;100.00;102650.13;5052643;28;20068;-71
2024/01/22 09:56:29;;;;;;;12.68;8.50;;;;;;;3.70;100.00;102643.03;5047733;28;20471;-71
2024/01/22 09:59:20;;;;;;;14.00;9.52;;;;;;;3.94;100.00;102700.25;5055359;28;20112;-72
2024/01/22 10:01:51;;;;;;;13.45;10.50;;;;;;;4.22;100.00;102646.91;5062915;28;20505;-72
2024/01/22 10:04:18;;;;;;;13.18;8.52;;;;;;;3.77;100.00;102565.38;5057493;28;20483;-71
2024/01/22 10:06:45;;;;;;;11.38;8.48;;;;;;;4.33;100.00;102606.28;5058989;28;20119;-72
2024/01/22 10:09:29;;;;;;;13.15;9.32;;;;;;;4.71;100.00;102635.50;5059042;28;20064;-73
2024/01/22 10:11:55;;;;;;;13.80;7.65;;;;;;;4.71;100.00;102643.06;5062677;28;20486;-74
2024/01/22 10:14:35;;;;;;;12.40;8.18;;;;;;;4.18;100.00;102609.84;5062733;28;20044;-73
2024/01/22 10:17:28;;;;;;;9.60;7.15;;;;;;;4.47;100.00;102638.69;5053412;28;20029;-69
2024/01/22 10:20:05;;;;;;;11.57;7.70;;;;;;;4.35;100.00;102631.50;5055664;28;20083;-71
2024/01/22 10:22:31;;;;;;;14.63;12.07;;;;;;;3.85;100.00;102621.03;5062141;28;20032;-76
2024/01/22 10:25:00;;;;;;;12.15;8.00;;;;;;;4.51;100.00;102627.94;5055930;28;20089;-70
2024/01/22 10:27:27;;;;;;;11.43;7.53;;;;;;;4.44;100.00;102518.53;5059878;28;20503;-70
2024/01/22 10:30:08;;;;;;;10.55;8.18;;;;;;;4.79;100.00;102587.91;5054105;28;20032;-70
2024/01/22 10:32:34;;;;;;;11.60;9.30;;;;;;;4.93;100.00;102625.41;5061600;28;20034;-70
2024/01/22 10:34:59;;;;;;;9.60;6.65;;;;;;;5.86;100.00;102533.72;5061109;28;20033;-72
2024/01/22 10:37:24;;;;;;;11.38;7.03;;;;;;;4.89;100.00;102537.03;5056893;28;20020;-71
2024/01/22 10:40:01;;;;;;;10.57;7.43;;;;;;;4.62;100.00;102494.03;5052726;28;20051;-74
2024/01/22 10:42:27;;;;;;;8.05;6.60;;;;;;;4.95;100.00;102636.41;5057476;28;20024;-70
2024/01/22 10:44:54;;;;;;;33.30;18.40;;;;;;;4.60;100.00;102477.16;5059436;28;20024;-71
2024/01/22 10:47:21;;;;;;;26.80;17.38;;;;;;;4.44;100.00;102478.25;5059492;28;20025;-70
2024/01/22 10:49:46;;;;;;;32.80;22.20;;;;;;;4.35;100.00;102414.97;5061919;28;20568;-70
2024/01/22 10:52:15;;;;;;;16.17;10.73;;;;;;;4.61;100.00;102431.03;5060016;28;20028;-70
2024/01/22 10:54:41;;;;;;;13.00;10.52;;;;;;;4.90;100.00;102600.09;5052763;28;20489;-70
2024/01/22 10:57:12;;;;;;;14.23;10.30;;;;;;;5.10;100.00;102494.94;5058393;28;20028;-70
2024/01/22 10:59:39;;;;;;;13.70;9.80;;;;;;;4.66;100.00;102482.41;5056951;28;20029;-70
2024/01/22 11:02:12;;;;;;;14.40;10.70;;;;;;;4.74;100.00;102471.81;5055013;28;20047;-72
2024/01/22 11:04:45;;;;;;;16.73;9.80;;;;;;;5.00;100.00;102534.09;5054738;28;20048;-71
2024/01/22 11:07:11;;;;;;;13.10;8.95;;;;;;;4.78;100.00;102423.25;5057586;28;20024;-72
2024/01/22 11:09:38;;;;;;;15.23;11.88;;;;;;;4.96;100.00;102507.06;5057148;28;20033;-70